Overview Statistics Trail Chart Weather Telemetry Raw packets
 

This is the latest recevied weather packets stored in our database for station/object VK4UCZ-13. If no packets are shown the sender has not sent any weather packets the latest 10 day(s).

<< 1 2 3 4 >>
Time Temp. Humidity Pressure Rain* Wind** Luminosity Snow
1788237815 22.22° C 62% 1015.5 hPa 0 mm - - -
1788237215 22.22° C 63% 1015.7 hPa 0 mm - - -
1788236615 21.11° C 64% 1015.8 hPa 0 mm - - -
1788236015 21.11° C 67% 1015.9 hPa 0 mm - - -
1788235415 21.11° C 68% 1016.3 hPa 0 mm - - -
1788234815 21.11° C 68% 1016.4 hPa 0 mm - - -
1788234215 21.11° C 69% 1016.4 hPa 0 mm - - -
1788233615 20.56° C 71% 1016.7 hPa 0 mm - - -
1788233015 20.56° C 71% 1016.6 hPa 0 mm - - -
1788232415 20.56° C 72% 1016.8 hPa 0 mm - - -
1788231815 20° C 74% 1016.8 hPa 0 mm - - -
1788231215 19.44° C 75% 1016.9 hPa 0 mm - - -
1788230615 20° C 75% 1017.3 hPa 0 mm - - -
1788230015 20° C 76% 1017.3 hPa 0 mm - - -
1788229415 20° C 76% 1017.6 hPa 0 mm - - -
1788228816 20° C 76% 1017.9 hPa 0 mm - - -
1788228215 20.56° C 74% 1018 hPa 0 mm - - -
1788227615 20.56° C 74% 1018 hPa 0 mm - - -
1788227015 20° C 76% 1018.6 hPa 0 mm - - -
1788226415 20° C 77% 1018.4 hPa 0 mm - - -
1788225815 19.44° C 74% 1018.8 hPa 0 mm - - -
1788225215 20.56° C 72% 1018.8 hPa 0 mm - - -
1788224615 20° C 75% 1019 hPa 0 mm - - -
1788224015 20° C 76% 1019.1 hPa 0 mm - - -
1788223415 19.44° C 79% 1019.5 hPa 0 mm - - -

* Rain latest hour (hover to see other rain measurements)
** Current wind speed in m/s (hover to see current wind gust speed)